Time;durP1;ratioP1;P1;durP2;ratioP2;P2;SDS_P1;SDS_P2;PMS_P1;PMS_P2;Temp;Humidity;BMP_temperature;BMP_pressure;BME280_temperature;BME280_humidity;BME280_pressure;Samples;Min_cycle;Max_cycle;Signal;HPM_P1;HPM_P2
2022/05/04 00:00:15;;;;;;;9.40;8.50;;;;;;;9.23;100.00;99556.94;5112093;28;20190;-65
2022/05/04 00:02:42;;;;;;;9.93;9.03;;;;;;;9.20;100.00;99557.00;5112596;28;20265;-65
2022/05/04 00:05:10;;;;;;;8.73;8.00;;;;;;;9.10;100.00;99530.78;5111756;28;20574;-66
2022/05/04 00:07:38;;;;;;;8.83;7.93;;;;;;;9.17;100.00;99542.56;5111173;28;20191;-66
2022/05/04 00:10:07;;;;;;;9.33;8.43;;;;;;;9.18;100.00;99546.78;5111078;28;20285;-65
2022/05/04 00:12:35;;;;;;;8.30;7.60;;;;;;;9.19;100.00;99543.38;5111422;28;20290;-66
2022/05/04 00:15:02;;;;;;;8.07;7.27;;;;;;;9.18;100.00;99554.47;5112097;28;20222;-66
2022/05/04 00:17:29;;;;;;;10.47;7.70;;;;;;;9.18;100.00;99548.50;5107710;28;20195;-66
2022/05/04 00:19:56;;;;;;;7.83;7.13;;;;;;;9.20;100.00;99542.50;5111938;28;20290;-65
2022/05/04 00:22:25;;;;;;;6.10;5.70;;;;;;;9.20;100.00;99542.50;5111763;28;20206;-65
2022/05/04 00:24:54;;;;;;;7.43;6.77;;;;;;;9.17;100.00;99531.50;5110951;28;20273;-66
2022/05/04 00:27:21;;;;;;;5.73;5.33;;;;;;;9.06;100.00;99524.03;5111590;28;20952;-66
2022/05/04 00:29:48;;;;;;;5.90;5.33;;;;;;;8.99;100.00;99532.72;5111637;28;20289;-66
2022/05/04 00:32:17;;;;;;;5.20;4.90;;;;;;;8.96;100.00;99522.56;5111095;28;20190;-66
2022/05/04 00:34:44;;;;;;;5.50;5.20;;;;;;;8.94;100.00;99524.31;5111513;28;20215;-65
2022/05/04 00:37:11;;;;;;;4.83;4.60;;;;;;;8.93;100.00;99520.06;5110464;28;20203;-66
2022/05/04 00:39:38;;;;;;;3.97;3.77;;;;;;;8.93;100.00;99527.75;5107878;28;20282;-65
2022/05/04 00:42:12;;;;;;;4.50;4.30;;;;;;;8.91;100.00;99521.84;5108110;28;20314;-66
2022/05/04 00:44:40;;;;;;;5.03;4.73;;;;;;;8.91;100.00;99515.00;5112364;28;20593;-65
2022/05/04 00:47:08;;;;;;;4.40;4.20;;;;;;;8.94;100.00;99521.75;5111044;28;20285;-66
2022/05/04 00:49:35;;;;;;;5.00;4.70;;;;;;;8.98;100.00;99521.66;5111738;28;20201;-66
2022/05/04 00:52:04;;;;;;;4.73;4.43;;;;;;;8.92;100.00;99520.94;5110224;28;20199;-65
2022/05/04 00:54:32;;;;;;;4.77;4.47;;;;;;;8.76;100.00;99510.19;5111672;28;20575;-65
2022/05/04 00:57:00;;;;;;;3.97;3.77;;;;;;;8.80;100.00;99521.22;5111219;28;20202;-65
2022/05/04 00:59:29;;;;;;;4.20;4.00;;;;;;;8.81;100.00;99525.44;5110509;28;20290;-66
2022/05/04 01:01:57;;;;;;;4.20;4.00;;;;;;;8.85;100.00;99534.75;5110126;28;20207;-66
2022/05/04 01:04:24;;;;;;;4.27;4.07;;;;;;;8.77;100.00;99511.91;5110334;28;20633;-66
2022/05/04 01:06:51;;;;;;;4.40;4.17;;;;;;;8.96;100.00;99538.75;5109812;28;20571;-66
2022/05/04 01:09:19;;;;;;;3.67;3.37;;;;;;;8.87;100.00;99512.53;5107971;28;20195;-66
2022/05/04 01:11:46;;;;;;;4.30;4.10;;;;;;;9.04;100.00;99533.47;5109996;28;20195;-65
2022/05/04 01:14:14;;;;;;;4.00;3.80;;;;;;;9.12;100.00;99540.97;5109980;28;20210;-66
2022/05/04 01:16:45;;;;;;;4.53;4.27;;;;;;;9.14;100.00;99532.41;5110564;28;20199;-66
2022/05/04 01:19:12;;;;;;;3.83;3.63;;;;;;;9.05;100.00;99512.13;5109810;28;20194;-65
2022/05/04 01:21:39;;;;;;;3.67;3.47;;;;;;;9.17;100.00;99536.59;5110865;28;20193;-66
2022/05/04 01:24:09;;;;;;;4.17;3.97;;;;;;;9.05;100.00;99526.66;5109804;28;20198;-66
2022/05/04 01:26:36;;;;;;;3.67;3.47;;;;;;;9.11;100.00;99542.66;5110357;28;20282;-66
2022/05/04 01:29:03;;;;;;;3.50;3.30;;;;;;;9.05;100.00;99542.81;5108990;28;20208;-65
2022/05/04 01:31:30;;;;;;;3.30;3.20;;;;;;;8.93;100.00;99540.53;5107909;28;20731;-65
2022/05/04 01:33:57;;;;;;;4.20;4.00;;;;;;;8.71;100.00;99531.63;5108295;28;20210;-65
2022/05/04 01:36:24;;;;;;;4.07;3.87;;;;;;;8.53;100.00;99537.13;5107966;28;20198;-66
2022/05/04 01:38:51;;;;;;;4.43;4.23;;;;;;;8.38;100.00;99539.09;5108472;28;20686;-65
2022/05/04 01:44:04;;;;;;;4.70;4.40;;;;;;;8.20;100.00;99533.47;5109625;28;20202;-66
2022/05/04 01:46:31;;;;;;;5.37;4.97;;;;;;;8.17;100.00;99533.50;5108537;28;20199;-66
2022/05/04 01:48:58;;;;;;;6.67;6.17;;;;;;;8.06;100.00;99514.97;5108517;28;20191;-66
2022/05/04 01:51:25;;;;;;;6.43;5.87;;;;;;;8.03;100.00;99530.34;5110277;28;20321;-65
2022/05/04 01:53:52;;;;;;;5.63;5.33;;;;;;;8.00;100.00;99535.50;5110400;28;20281;-66
2022/05/04 01:56:21;;;;;;;5.80;5.50;;;;;;;7.95;100.00;99522.00;5109060;28;20290;-66
2022/05/04 01:58:47;;;;;;;8.93;5.93;;;;;;;7.84;100.00;99524.75;5110408;28;20645;-66
2022/05/04 02:01:14;;;;;;;6.30;5.80;;;;;;;7.77;100.00;99516.34;5110086;28;20201;-65
2022/05/04 02:03:42;;;;;;;6.70;6.10;;;;;;;7.77;100.00;99510.41;5109643;28;20289;-65
2022/05/04 02:06:09;;;;;;;6.67;6.17;;;;;;;7.77;100.00;99512.94;5108760;28;20285;-65
2022/05/04 02:08:36;;;;;;;6.60;6.20;;;;;;;7.72;100.00;99510.47;5110035;28;20645;-65
2022/05/04 02:11:04;;;;;;;7.87;6.00;;;;;;;7.71;100.00;99508.78;5109882;28;20588;-65
2022/05/04 02:13:32;;;;;;;5.83;5.43;;;;;;;7.78;100.00;99522.28;5108911;28;20285;-65
2022/05/04 02:15:59;;;;;;;6.77;6.27;;;;;;;7.84;100.00;99522.19;5109812;28;20298;-66
2022/05/04 02:18:26;;;;;;;7.80;7.20;;;;;;;7.92;100.00;99525.44;5108166;28;20686;-65
2022/05/04 02:20:53;;;;;;;6.30;5.90;;;;;;;7.99;100.00;99524.47;5109836;28;20199;-65
2022/05/04 02:23:20;;;;;;;5.50;5.17;;;;;;;8.03;100.00;99526.09;5107720;28;20275;-66
2022/05/04 02:25:47;;;;;;;6.03;5.63;;;;;;;8.07;100.00;99522.63;5110102;28;20303;-66
2022/05/04 02:28:14;;;;;;;6.63;6.27;;;;;;;8.12;100.00;99531.03;5109014;28;20628;-66
2022/05/04 02:30:43;;;;;;;5.87;5.47;;;;;;;8.16;100.00;99522.44;5109715;28;20563;-66
2022/05/04 02:33:10;;;;;;;5.70;5.37;;;;;;;8.21;100.00;99528.31;5109069;28;20559;-66
2022/05/04 02:38:22;;;;;;;5.83;5.50;;;;;;;8.36;100.00;99535.72;5109744;28;20202;-65
2022/05/04 02:40:49;;;;;;;6.67;6.07;;;;;;;8.42;100.00;99539.88;5109671;28;20195;-65
2022/05/04 02:43:16;;;;;;;6.00;5.60;;;;;;;8.42;100.00;99534.75;5109184;28;20234;-66
2022/05/04 02:45:44;;;;;;;5.80;5.33;;;;;;;8.54;100.00;99554.97;5109240;28;20203;-65
2022/05/04 02:48:11;;;;;;;6.33;5.83;;;;;;;8.57;100.00;99549.78;5108718;28;20198;-66
2022/05/04 02:50:38;;;;;;;6.50;5.90;;;;;;;8.57;100.00;99548.94;5109411;28;20252;-66
2022/05/04 02:53:06;;;;;;;6.37;5.87;;;;;;;8.59;100.00;99552.31;5107627;28;20285;-65
2022/05/04 02:55:34;;;;;;;5.60;5.20;;;;;;;8.59;100.00;99557.44;5102840;28;20215;-66
2022/05/04 02:58:01;;;;;;;5.93;5.47;;;;;;;8.58;100.00;99551.47;5106511;28;20324;-65
2022/05/04 03:00:28;;;;;;;5.63;5.20;;;;;;;8.65;100.00;99554.75;5110284;28;20198;-66
2022/05/04 03:02:56;;;;;;;6.23;5.73;;;;;;;8.50;100.00;99527.78;5112744;28;20294;-65
2022/05/04 03:05:24;;;;;;;5.00;4.73;;;;;;;8.68;100.00;99562.34;5113257;28;20201;-65
2022/05/04 03:07:52;;;;;;;5.80;5.23;;;;;;;8.65;100.00;99558.16;5113410;28;20259;-66
2022/05/04 03:10:18;;;;;;;5.83;5.30;;;;;;;8.65;100.00;99568.38;5112623;28;20207;-66
2022/05/04 03:12:45;;;;;;;6.40;5.80;;;;;;;8.54;100.00;99556.66;5113173;28;20206;-66
2022/05/04 03:15:13;;;;;;;6.47;5.97;;;;;;;8.59;100.00;99565.94;5112252;28;20590;-66
2022/05/04 03:17:40;;;;;;;6.00;5.50;;;;;;;8.58;100.00;99566.81;5111649;28;20281;-66
2022/05/04 03:20:12;;;;;;;5.77;5.40;;;;;;;8.57;100.00;99571.94;5110414;28;20202;-66
2022/05/04 03:22:39;;;;;;;5.87;5.50;;;;;;;8.53;100.00;99578.00;5109689;28;20662;-65
2022/05/04 03:25:07;;;;;;;5.37;5.07;;;;;;;8.41;100.00;99559.47;5111200;28;20282;-65
2022/05/04 03:27:34;;;;;;;4.90;4.60;;;;;;;8.43;100.00;99562.81;5113215;28;20620;-66
2022/05/04 03:30:01;;;;;;;4.73;4.43;;;;;;;8.44;100.00;99564.50;5112855;28;20198;-65
2022/05/04 03:32:28;;;;;;;5.70;4.80;;;;;;;8.41;100.00;99559.47;5112726;28;20203;-65
2022/05/04 03:34:55;;;;;;;6.17;4.93;;;;;;;8.43;100.00;99567.94;5112674;28;20214;-66
2022/05/04 03:37:23;;;;;;;5.27;4.97;;;;;;;8.39;100.00;99558.66;5111719;28;20307;-66
2022/05/04 03:39:50;;;;;;;4.83;4.53;;;;;;;8.47;100.00;99572.97;5108564;27;20191;-66
2022/05/04 03:42:17;;;;;;;5.07;4.77;;;;;;;8.50;100.00;99572.94;5107653;28;20222;-65
2022/05/04 03:44:44;;;;;;;4.90;4.60;;;;;;;8.56;100.00;99573.69;5111147;28;20194;-65
2022/05/04 03:47:11;;;;;;;5.37;4.83;;;;;;;8.60;100.00;99574.44;5110232;28;20206;-66
2022/05/04 03:49:38;;;;;;;5.00;4.70;;;;;;;8.63;100.00;99577.75;5110841;28;20198;-66
2022/05/04 03:52:05;;;;;;;4.20;3.90;;;;;;;8.63;100.00;99582.88;5109946;28;20625;-66
2022/05/04 03:54:34;;;;;;;6.57;4.00;;;;;;;8.59;100.00;99565.09;5109376;28;20726;-65
2022/05/04 03:57:00;;;;;;;4.07;3.87;;;;;;;8.72;100.00;99589.53;5111488;28;20278;-66
2022/05/04 03:59:27;;;;;;;4.17;3.93;;;;;;;8.76;100.00;99586.03;5111530;28;20243;-66
2022/05/04 04:01:54;;;;;;;4.60;4.30;;;;;;;8.83;100.00;99597.81;5111581;28;20205;-66
2022/05/04 04:04:21;;;;;;;4.23;3.90;;;;;;;8.86;100.00;99578.16;5111359;28;20313;-66
2022/05/04 04:06:48;;;;;;;4.80;4.50;;;;;;;8.96;100.00;99589.03;5112486;28;20287;-66
2022/05/04 04:09:16;;;;;;;5.23;4.73;;;;;;;9.02;100.00;99594.03;5111005;28;20233;-66
2022/05/04 04:11:44;;;;;;;4.10;3.90;;;;;;;9.04;100.00;99596.56;5110909;28;20285;-66
2022/05/04 04:14:11;;;;;;;4.97;4.57;;;;;;;9.14;100.00;99604.00;5111527;28;20285;-66
2022/05/04 04:16:38;;;;;;;4.90;4.60;;;;;;;9.21;100.00;99602.97;5112107;28;20213;-66
2022/05/04 04:19:05;;;;;;;4.00;3.80;;;;;;;9.29;100.00;99596.00;5111336;28;20201;-66
2022/05/04 04:24:16;;;;;;;4.70;4.30;;;;;;;9.52;100.00;99604.88;5110519;28;20692;-66
2022/05/04 04:26:45;;;;;;;4.40;4.20;;;;;;;9.57;100.00;99592.81;5111215;28;20208;-66
2022/05/04 04:29:12;;;;;;;4.37;4.17;;;;;;;9.78;100.00;99602.56;5111432;28;20197;-66
2022/05/04 04:31:39;;;;;;;4.33;4.07;;;;;;;9.83;100.00;99600.72;5111667;28;20199;-66
2022/05/04 04:34:07;;;;;;;4.40;4.20;;;;;;;9.96;100.00;99612.34;5110874;28;20716;-66
2022/05/04 04:36:34;;;;;;;4.10;3.90;;;;;;;10.15;100.00;99600.81;5111431;28;20206;-66
2022/05/04 04:39:01;;;;;;;4.63;4.40;;;;;;;10.30;100.00;99600.44;5111789;28;20671;-67
2022/05/04 04:41:28;;;;;;;4.13;3.80;;;;;;;10.44;100.00;99600.91;5111070;28;20682;-66
2022/05/04 04:43:56;;;;;;;3.70;3.40;;;;;;;10.54;100.00;99598.94;5109617;28;20206;-66
2022/05/04 04:46:24;;;;;;;4.93;4.13;;;;;;;10.62;100.00;99589.31;5109206;28;20293;-66
2022/05/04 04:48:51;;;;;;;4.17;3.87;;;;;;;10.70;100.00;99597.63;5111403;28;20198;-66
2022/05/04 04:51:18;;;;;;;4.37;4.17;;;;;;;10.77;100.00;99603.44;5111287;28;20283;-66
2022/05/04 04:53:45;;;;;;;4.90;4.60;;;;;;;10.90;100.00;99604.78;5111178;28;20205;-66
2022/05/04 04:56:12;;;;;;;4.93;4.60;;;;;;;10.96;100.00;99609.72;5107788;28;20211;-66
2022/05/04 04:58:39;;;;;;;4.87;4.47;;;;;;;11.01;100.00;99602.75;5109426;28;20697;-66
2022/05/04 05:01:07;;;;;;;4.23;4.03;;;;;;;11.01;100.00;99587.38;5110564;28;20745;-67
2022/05/04 05:03:34;;;;;;;4.20;3.93;;;;;;;11.22;100.00;99597.00;5111028;28;20206;-66
2022/05/04 05:06:01;;;;;;;4.40;4.20;;;;;;;11.27;100.00;99590.00;5109649;28;20714;-66
2022/05/04 05:08:28;;;;;;;4.00;3.80;;;;;;;11.36;100.00;99589.72;5111502;28;20202;-67
2022/05/04 05:10:55;;;;;;;4.27;4.07;;;;;;;11.52;100.00;99600.38;5110892;28;20293;-66
2022/05/04 05:13:21;;;;;;;4.17;3.87;;;;;;;11.53;100.00;99589.22;5110367;28;20203;-66
2022/05/04 05:18:37;;;;;;;4.97;4.10;;;;;;;11.79;100.00;99608.97;5102814;28;20186;-66
2022/05/04 05:21:04;;;;;;;4.47;4.17;;;;;;;11.97;100.00;99613.53;5105236;28;20198;-67
2022/05/04 05:23:31;;;;;;;5.30;4.63;;;;;;;12.19;100.00;99611.91;5108072;28;20294;-66
2022/05/04 05:25:58;;;;;;;4.70;4.50;;;;;;;12.28;100.00;99624.47;5108270;28;20191;-67
2022/05/04 05:28:25;;;;;;;4.23;3.80;;;;;;;12.28;100.00;99611.59;5109600;28;20207;-66
2022/05/04 05:30:52;;;;;;;4.20;4.00;;;;;;;12.53;100.00;99630.47;5108979;28;20198;-66
2022/05/04 05:33:19;;;;;;;3.67;3.47;;;;;;;12.63;99.94;99636.94;5109261;28;20293;-65
2022/05/04 05:35:48;;;;;;;4.03;3.83;;;;;;;12.65;100.00;99636.91;5110828;28;20250;-66
2022/05/04 05:38:14;;;;;;;3.80;3.60;;;;;;;12.66;100.00;99635.19;5110263;27;20199;-65
2022/05/04 05:40:41;;;;;;;3.83;3.63;;;;;;;12.56;100.00;99625.22;5110079;28;20209;-66
2022/05/04 05:43:09;;;;;;;3.97;3.77;;;;;;;12.54;100.00;99627.00;5107054;28;20262;-65
2022/05/04 05:45:36;;;;;;;3.70;3.50;;;;;;;12.46;99.09;99629.00;5111289;28;20849;-66
2022/05/04 05:48:03;;;;;;;3.43;3.30;;;;;;;12.37;99.38;99624.16;5111051;28;20625;-65
2022/05/04 05:50:30;;;;;;;3.70;3.50;;;;;;;12.34;99.07;99631.97;5111013;28;20285;-66
2022/05/04 05:52:58;;;;;;;3.80;3.60;;;;;;;12.30;100.00;99622.69;5108433;28;20686;-66
2022/05/04 05:55:25;;;;;;;3.97;3.77;;;;;;;12.34;100.00;99623.44;5107248;28;20318;-66
2022/05/04 05:57:52;;;;;;;3.60;3.40;;;;;;;12.40;100.00;99618.94;5106645;28;20202;-69
2022/05/04 06:00:19;;;;;;;4.07;3.88;;;;;;;12.30;100.00;99607.28;5108182;28;20505;-64
2022/05/04 06:02:46;;;;;;;4.00;3.77;;;;;;;12.57;100.00;99641.47;5111097;28;20202;-64
2022/05/04 06:05:13;;;;;;;3.10;3.00;;;;;;;12.64;100.00;99628.34;5108272;28;20302;-64
2022/05/04 06:07:41;;;;;;;3.70;3.50;;;;;;;12.60;100.00;99620.81;5109012;28;20245;-63
2022/05/04 06:10:10;;;;;;;3.47;3.27;;;;;;;12.54;100.00;99626.16;5109378;28;20234;-64
2022/05/04 06:12:38;;;;;;;3.17;3.07;;;;;;;12.50;100.00;99640.84;5111577;28;20648;-64
2022/05/04 06:15:07;;;;;;;3.40;3.20;;;;;;;12.56;100.00;99638.09;5110982;28;20199;-64
2022/05/04 06:17:34;;;;;;;3.53;3.20;;;;;;;12.60;100.00;99639.63;5110176;28;20685;-64
2022/05/04 06:20:01;;;;;;;3.20;3.10;;;;;;;12.64;100.00;99641.22;5111028;28;20289;-64
2022/05/04 06:22:28;;;;;;;3.87;3.57;;;;;;;12.61;100.00;99633.59;5110959;28;20203;-64
2022/05/04 06:24:55;;;;;;;3.30;3.20;;;;;;;12.70;100.00;99631.63;5110968;28;20289;-64
2022/05/04 06:27:23;;;;;;;3.67;3.47;;;;;;;12.76;100.00;99621.97;5110957;28;20301;-63
2022/05/04 06:35:19;;;;;;;2.97;2.87;;;;;;;12.94;100.00;99630.72;5110806;28;20198;-63
2022/05/04 06:37:46;;;;;;;2.97;2.87;;;;;;;13.04;100.00;99629.50;5110832;28;20195;-64
2022/05/04 06:40:13;;;;;;;2.87;2.77;;;;;;;13.10;100.00;99619.88;5111438;28;20641;-63
2022/05/04 06:42:41;;;;;;;4.60;2.93;;;;;;;13.02;100.00;99623.59;5110913;28;20301;-64
2022/05/04 06:45:09;;;;;;;3.70;3.50;;;;;;;13.05;100.00;99628.63;5110980;28;20297;-64
2022/05/04 06:47:36;;;;;;;2.90;2.80;;;;;;;13.09;100.00;99632.78;5110657;28;20199;-64
2022/05/04 06:50:04;;;;;;;3.70;3.50;;;;;;;13.15;100.00;99629.97;5111188;28;20259;-63
2022/05/04 06:52:32;;;;;;;3.33;3.10;;;;;;;13.19;100.00;99618.69;5110587;28;20671;-63
2022/05/04 06:54:59;;;;;;;2.77;2.67;;;;;;;13.23;99.36;99627.97;5110148;28;20199;-63
2022/05/04 06:57:26;;;;;;;3.20;3.00;;;;;;;13.27;99.30;99634.69;5110716;28;20218;-64
2022/05/04 06:59:54;;;;;;;3.13;3.03;;;;;;;13.36;100.00;99628.34;5110588;28;20199;-63
2022/05/04 07:02:21;;;;;;;3.47;3.30;;;;;;;13.42;100.00;99626.38;5110855;28;20440;-64
2022/05/04 07:04:48;;;;;;;3.53;3.33;;;;;;;13.51;100.00;99631.16;5110660;28;20293;-64
2022/05/04 07:07:15;;;;;;;3.53;3.23;;;;;;;13.58;100.00;99630.03;5110987;28;20753;-63
2022/05/04 07:09:42;;;;;;;3.53;3.30;;;;;;;13.70;99.99;99617.59;5110553;28;20276;-63
2022/05/04 07:12:09;;;;;;;3.53;3.33;;;;;;;13.90;100.00;99615.03;5110883;28;20202;-64
2022/05/04 07:14:36;;;;;;;4.07;3.87;;;;;;;14.11;99.74;99619.34;5110818;28;20738;-64
2022/05/04 07:17:05;;;;;;;3.53;3.30;;;;;;;14.25;97.70;99619.59;5110801;28;20559;-64
2022/05/04 07:19:32;;;;;;;3.50;3.30;;;;;;;14.32;97.02;99618.44;5110835;28;20199;-64
2022/05/04 07:21:59;;;;;;;3.50;3.30;;;;;;;14.39;95.97;99619.91;5109530;28;20199;-64
2022/05/04 07:24:26;;;;;;;3.13;3.03;;;;;;;14.48;97.33;99619.50;5110717;28;20289;-64
2022/05/04 07:26:53;;;;;;;8.33;3.10;;;;;;;14.49;94.76;99613.47;5110525;28;20574;-68
2022/05/04 07:29:20;;;;;;;3.10;2.90;;;;;;;14.77;94.88;99625.16;5106085;28;20435;-68
2022/05/04 07:31:47;;;;;;;3.00;2.80;;;;;;;15.27;97.73;99626.34;5107848;28;20289;-67
2022/05/04 07:34:16;;;;;;;3.00;2.90;;;;;;;15.65;92.65;99637.50;5108679;28;20199;-67
2022/05/04 07:36:43;;;;;;;2.80;2.70;;;;;;;15.91;88.25;99633.69;5105519;28;20217;-68
2022/05/04 07:42:21;;;;;;;2.83;2.63;;;;;;;16.05;89.06;99620.94;5108087;28;20207;-68
2022/05/04 07:44:42;;;;;;;3.00;2.80;;;;;;;16.52;91.34;99632.34;5109255;28;20194;-68
2022/05/04 07:47:09;;;;;;;3.40;3.20;;;;;;;16.70;88.24;99646.94;5107741;28;20636;-67
2022/05/04 07:49:37;;;;;;;3.63;3.43;;;;;;;17.06;87.16;99643.41;5110604;28;20195;-68
2022/05/04 07:52:05;;;;;;;3.23;3.13;;;;;;;17.36;88.23;99636.56;5110387;28;20290;-67
2022/05/04 07:54:32;;;;;;;3.03;2.77;;;;;;;17.42;85.94;99645.75;5113066;28;20201;-67
2022/05/04 07:56:59;;;;;;;3.37;3.17;;;;;;;17.47;86.90;99643.75;5107442;28;20618;-66
2022/05/04 07:59:26;;;;;;;3.17;2.97;;;;;;;17.55;84.29;99647.63;5111655;28;20190;-67
2022/05/04 08:04:39;;;;;;;3.43;3.13;;;;;;;17.56;84.16;99644.13;5112092;28;20268;-67
2022/05/04 08:07:06;;;;;;;3.63;3.03;;;;;;;17.56;84.33;99644.13;5110849;28;20286;-68
2022/05/04 08:09:36;;;;;;;5.63;2.80;;;;;;;17.39;85.65;99631.22;5110795;28;20646;-67
2022/05/04 08:12:04;;;;;;;2.93;2.83;;;;;;;17.26;84.64;99635.38;5111904;28;20209;-67
2022/05/04 08:14:31;;;;;;;2.30;2.20;;;;;;;17.05;84.26;99631.34;5112052;27;20287;-68
2022/05/04 08:16:57;;;;;;;2.00;1.90;;;;;;;16.99;82.54;99629.94;5110772;28;20721;-66
2022/05/04 08:19:24;;;;;;;2.07;1.97;;;;;;;17.01;82.79;99642.78;5110309;28;22197;-68
2022/05/04 08:21:54;;;;;;;2.27;2.17;;;;;;;17.08;80.49;99644.13;5112803;28;20199;-69
2022/05/04 08:24:21;;;;;;;2.90;2.30;;;;;;;17.07;80.16;99645.88;5112324;28;20259;-69
2022/05/04 08:26:48;;;;;;;2.37;2.27;;;;;;;17.01;82.45;99650.56;5111548;28;20202;-68
2022/05/04 08:29:15;;;;;;;2.40;2.30;;;;;;;17.06;83.54;99638.22;5111411;28;20282;-69
2022/05/04 08:31:42;;;;;;;2.50;2.40;;;;;;;17.12;83.00;99643.06;5112600;28;20273;-70
2022/05/04 08:34:09;;;;;;;2.87;2.70;;;;;;;17.18;84.43;99633.22;5111264;28;20273;-69
2022/05/04 08:36:37;;;;;;;2.50;2.40;;;;;;;17.24;84.86;99634.63;5111868;28;20317;-68
2022/05/04 08:39:06;;;;;;;2.30;2.20;;;;;;;17.31;84.18;99635.97;5113141;28;20198;-66
2022/05/04 08:41:35;;;;;;;2.77;2.67;;;;;;;17.36;84.92;99636.56;5110354;28;20226;-66
2022/05/04 08:44:05;;;;;;;2.50;2.40;;;;;;;17.43;85.68;99634.47;5110360;28;20206;-68
2022/05/04 08:46:34;;;;;;;2.40;2.30;;;;;;;17.51;84.62;99630.53;5109862;28;20563;-67
2022/05/04 08:49:03;;;;;;;2.90;2.80;;;;;;;17.60;84.03;99630.09;5110794;28;20209;-67
2022/05/04 08:51:33;;;;;;;3.07;2.97;;;;;;;17.69;86.59;99624.38;5109719;28;20248;-68
2022/05/04 08:54:00;;;;;;;2.43;2.23;;;;;;;17.93;86.65;99626.53;5111987;27;20225;-67
2022/05/04 08:56:28;;;;;;;2.97;2.20;;;;;;;18.15;84.28;99627.81;5111809;28;20242;-68
2022/05/04 08:58:55;;;;;;;2.43;2.33;;;;;;;18.42;82.33;99625.34;5110486;28;20641;-66
2022/05/04 09:01:24;;;;;;;2.27;2.10;;;;;;;18.72;85.19;99628.78;5108444;28;20290;-68
2022/05/04 09:03:52;;;;;;;1.70;1.70;;;;;;;18.81;80.72;99623.03;5106834;28;20293;-68
2022/05/04 09:06:26;;;;;;;3.20;2.20;;;;;;;18.91;79.44;99627.66;5107041;28;20199;-67
2022/05/04 09:08:54;;;;;;;5.23;2.30;;;;;;;18.94;79.15;99607.53;5106937;28;20210;-67
2022/05/04 09:11:22;;;;;;;2.10;2.00;;;;;;;19.26;78.25;99621.13;5107138;27;20575;-67
2022/05/04 09:13:51;;;;;;;1.50;1.50;;;;;;;19.38;75.50;99625.59;5108470;28;20260;-67
2022/05/04 09:16:26;;;;;;;2.90;2.80;;;;;;;19.58;75.57;99620.00;5109545;28;20309;-67
2022/05/04 09:18:53;;;;;;;2.40;2.30;;;;;;;19.76;72.66;99616.22;5108621;28;20202;-67
2022/05/04 09:21:22;;;;;;;1.87;1.87;;;;;;;19.86;76.87;99614.72;5105710;28;20205;-67
2022/05/04 09:23:53;;;;;;;2.60;2.40;;;;;;;19.90;72.81;99610.94;5102063;28;20254;-67
2022/05/04 09:26:21;;;;;;;2.10;1.80;;;;;;;19.99;73.85;99619.94;5109549;28;20191;-67
2022/05/04 09:28:59;;;;;;;1.80;1.70;;;;;;;20.10;68.25;99612.25;5108723;28;20224;-68
2022/05/04 09:31:28;;;;;;;1.83;1.73;;;;;;;20.20;70.39;99612.47;5111117;27;20442;-65
2022/05/04 09:33:57;;;;;;;1.90;1.80;;;;;;;20.22;64.71;99589.81;5111845;28;20259;-66
2022/05/04 09:36:35;;;;;;;2.30;1.70;;;;;;;20.28;65.38;99605.03;5111163;28;20644;-65
2022/05/04 09:44:57;;;;;;;1.67;1.57;;;;;;;20.52;63.54;99595.56;5111108;28;20195;-65
2022/05/04 09:47:24;;;;;;;2.80;2.60;;;;;;;20.66;69.08;99590.25;5109571;28;20241;-65
2022/05/04 09:49:53;;;;;;;1.77;1.67;;;;;;;20.76;64.90;99593.91;5111076;28;20283;-65
2022/05/04 09:52:23;;;;;;;2.00;1.90;;;;;;;20.81;65.85;99590.97;5110838;28;20286;-65
2022/05/04 09:54:52;;;;;;;1.53;1.50;;;;;;;20.84;64.60;99583.78;5110541;28;20199;-68
2022/05/04 09:57:20;;;;;;;2.87;1.77;;;;;;;20.90;66.86;99572.91;5110651;28;20298;-67
2022/05/04 09:59:48;;;;;;;1.33;1.23;;;;;;;20.95;64.51;99573.44;5110064;28;20200;-67
2022/05/04 10:02:16;;;;;;;2.67;2.57;;;;;;;21.07;66.50;99573.50;5104398;28;20200;-67
2022/05/04 10:04:46;;;;;;;1.80;1.70;;;;;;;21.22;64.72;99578.53;5111231;28;20206;-67
2022/05/04 10:07:13;;;;;;;3.93;3.50;;;;;;;21.27;64.40;99570.38;5112375;28;20195;-67
2022/05/04 10:09:41;;;;;;;3.47;3.20;;;;;;;21.45;62.55;99566.47;5111841;28;20193;-67
2022/05/04 10:12:10;;;;;;;1.70;1.60;;;;;;;21.49;55.44;99573.09;5112109;28;20242;-66
2022/05/04 10:14:39;;;;;;;1.53;1.47;;;;;;;21.54;55.12;99573.63;5112829;28;20212;-67
2022/05/04 10:17:12;;;;;;;1.00;1.00;;;;;;;21.74;55.72;99566.94;5113087;28;20283;-67
2022/05/04 10:19:47;;;;;;;1.27;1.17;;;;;;;21.83;57.15;99563.66;5110646;28;20220;-67
2022/05/04 10:22:20;;;;;;;1.30;1.30;;;;;;;21.95;58.79;99561.00;5109110;28;20205;-67
2022/05/04 10:24:48;;;;;;;1.30;1.30;;;;;;;22.17;50.03;99562.00;5110788;28;20343;-67
2022/05/04 10:27:20;;;;;;;1.27;1.20;;;;;;;22.21;46.62;99568.66;5110414;28;20225;-67
2022/05/04 10:32:45;;;;;;;1.87;1.77;;;;;;;22.19;48.39;99554.91;5111200;28;20217;-67
2022/05/04 10:35:24;;;;;;;1.63;1.53;;;;;;;22.18;45.18;99548.84;5110559;28;20205;-67
2022/05/04 10:38:03;;;;;;;1.03;1.03;;;;;;;22.21;50.96;99542.56;5109903;28;20229;-67
2022/05/04 10:40:33;;;;;;;1.83;1.73;;;;;;;22.31;46.68;99543.53;5108653;28;20289;-67
2022/05/04 10:43:02;;;;;;;1.43;1.33;;;;;;;22.26;41.23;99545.66;5108512;28;20811;-67
2022/05/04 10:45:33;;;;;;;1.33;1.33;;;;;;;22.36;46.34;99536.16;5108863;28;20289;-67
2022/05/04 10:48:14;;;;;;;1.20;1.20;;;;;;;22.44;48.54;99533.81;5110847;28;20201;-68
2022/05/04 10:50:49;;;;;;;1.73;1.43;;;;;;;22.64;50.97;99530.50;5108180;28;20267;-67
2022/05/04 10:53:36;;;;;;;1.80;1.70;;;;;;;22.65;47.79;99532.13;5111255;28;20721;-67
2022/05/04 10:56:06;;;;;;;2.10;1.90;;;;;;;22.63;51.03;99522.75;5105585;28;20928;-68
2022/05/04 10:58:35;;;;;;;1.90;1.80;;;;;;;22.77;50.41;99526.00;5108124;28;20218;-73
2022/05/04 11:01:04;;;;;;;1.87;1.77;;;;;;;22.91;48.19;99530.97;5106961;28;20210;-69
2022/05/04 11:03:34;;;;;;;2.10;2.00;;;;;;;22.98;46.22;99523.47;5110447;28;20197;-70
2022/05/04 11:06:09;;;;;;;1.10;1.10;;;;;;;23.08;45.41;99508.72;5108134;28;20281;-70
2022/05/04 11:08:36;;;;;;;1.80;1.70;;;;;;;23.06;48.75;99509.78;5105653;28;20630;-69
2022/05/04 11:11:04;;;;;;;1.70;1.60;;;;;;;23.04;50.66;99509.09;5109198;28;20207;-70
2022/05/04 11:13:31;;;;;;;1.77;1.67;;;;;;;23.05;51.15;99502.91;5111206;28;20206;-71
2022/05/04 11:16:00;;;;;;;1.77;1.67;;;;;;;22.98;48.97;99503.38;5106697;28;20202;-69
2022/05/04 11:18:28;;;;;;;1.50;1.50;;;;;;;22.86;45.21;99504.38;5109718;28;20611;-67
2022/05/04 11:20:55;;;;;;;2.00;1.90;;;;;;;22.82;51.94;99494.25;5110279;28;20202;-66
2022/05/04 11:23:27;;;;;;;2.10;1.60;;;;;;;22.81;50.35;99496.03;5111346;28;20214;-70
2022/05/04 11:25:54;;;;;;;1.50;1.50;;;;;;;22.95;51.79;99487.94;5113630;27;20737;-69
2022/05/04 11:28:24;;;;;;;1.60;1.50;;;;;;;22.90;46.82;99487.50;5110828;27;20197;-70
2022/05/04 11:30:51;;;;;;;1.53;1.53;;;;;;;22.89;50.03;99485.81;5109056;28;20209;-70
2022/05/04 11:33:19;;;;;;;4.50;1.70;;;;;;;22.99;46.34;99473.69;5108759;28;20588;-73
2022/05/04 11:35:52;;;;;;;1.80;1.67;;;;;;;22.99;42.92;99478.91;5111959;28;20194;-70
2022/05/04 11:38:19;;;;;;;1.47;1.47;;;;;;;23.09;47.49;99472.94;5107527;28;20228;-70
2022/05/04 11:40:48;;;;;;;1.50;1.50;;;;;;;23.23;44.46;99486.53;5114409;28;20288;-70
2022/05/04 11:43:34;;;;;;;1.63;1.53;;;;;;;23.30;49.60;99477.25;5114042;28;20228;-69
2022/05/04 11:46:06;;;;;;;1.47;1.37;;;;;;;23.24;43.68;99485.59;5112493;28;20248;-70
2022/05/04 11:48:34;;;;;;;2.57;1.67;;;;;;;23.26;42.82;99480.25;5114072;28;20199;-69
2022/05/04 11:51:00;;;;;;;1.53;1.43;;;;;;;23.42;41.91;99481.53;5113324;28;20209;-70
2022/05/04 11:53:27;;;;;;;1.57;1.57;;;;;;;23.58;49.19;99469.81;5114190;28;20199;-72
2022/05/04 11:55:57;;;;;;;1.63;1.63;;;;;;;23.59;48.94;99477.53;5114266;28;20290;-70
2022/05/04 11:58:26;;;;;;;1.53;1.43;;;;;;;23.41;48.37;99473.81;5114541;28;20309;-71
2022/05/04 12:00:53;;;;;;;2.13;1.87;;;;;;;23.40;53.38;99464.28;5114570;28;20285;-71
2022/05/04 12:03:21;;;;;;;1.57;1.57;;;;;;;23.25;46.16;99462.91;5114147;28;20285;-72
2022/05/04 12:05:49;;;;;;;1.70;1.60;;;;;;;23.25;46.33;99462.91;5114380;28;20285;-70